Flight Track Log - Related Links

Times and Time Zones

All times are in EDT time to prevent confusion due to time zone crossing. See the SWA34 flight status page for this flight to view local times or setup timezone preferences in your user account.

Time Position Orientation Groundspeed Altitude Reporting Facility
EDT Latitude Longitude Course Direction KTS MPH feet Rate Location/Type
Sun 08:38:18 PM 38.8000 -90.3667 North 194 223 3,700  Level Gateway (St. Louis) TRACON
Sun 08:38:35 PM 38.7981 -90.3525 100° East 198 228 4,500 3,000 Climbing Kansas City Center
Sun 08:39:36 PM 38.7961 -90.2761 92° East 207 238 7,600 3,122 Climbing Kansas City Center
Sun 08:40:38 PM 38.7958 -90.1800 90° East 259 298 10,900 2,806 Climbing Kansas City Center
Sun 08:41:40 PM 38.7956 -90.0636 90° East 321 369 13,400 2,780 Climbing Kansas City Center
Sun 08:42:41 PM 38.7950 -89.9375 90° East 347 399 16,600 3,122 Climbing Kansas City Center
Sun 08:43:43 PM 38.7936 -89.8053 91° East 366 421 19,800 3,024 Climbing Kansas City Center
Sun 08:44:44 PM 38.7928 -89.6492 90° East 374 430 22,800 3,073 Climbing Kansas City Center
Sun 08:45:46 PM 38.7919 -89.5128 90° East 382 440 26,100 3,290 Climbing Kansas City Center
Sun 08:46:48 PM 38.8083 -89.3833 81° East 368 423 29,600 2,585 Climbing Kansas City Center
Sun 08:47:49 PM 38.8247 -89.2481 81° East 361 415 31,400 1,756 Climbing Kansas City Center
Sun 08:48:51 PM 38.8417 -89.1175 80° East 371 427 33,200 1,610 Climbing Kansas City Center
Sun 08:49:52 PM 38.8583 -88.9856 81° East 375 432 34,700 1,317 Climbing Kansas City Center
Sun 08:50:54 PM 38.8769 -88.8556 80° East 388 447 35,900 1,065 Climbing Kansas City Center
Sun 08:51:56 PM 38.8939 -88.7175 81° East 393 452 36,900 927 Climbing Kansas City Center
Sun 08:52:57 PM 38.9156 -88.5486 81° East 404 465 37,800 780 Climbing Kansas City Center
Sun 08:53:59 PM 38.9531 -88.4053 71° East 418 481 38,500 1,043 Climbing Kansas City Center
Sun 08:54:52 PM 38.9994 -88.2992 61° Northeast 432 497 39,800 1,211 Climbing Indianapolis Center
Sun 08:55:53 PM 39.0503 -88.1628 64° Northeast 424 488 40,800 590 Climbing Indianapolis Center
Sun 08:56:54 PM 39.0989 -88.0275 65° Northeast 416 479 41,000 98 Climbing Indianapolis Center
Sun 08:57:55 PM 39.1497 -87.8883 65° Northeast 422 486 41,000  Level Indianapolis Center
Sun 08:58:57 PM 39.2003 -87.7475 65° Northeast 426 490 41,000  Level Indianapolis Center
Sun 08:59:58 PM 39.2500 -87.6117 65° Northeast 426 490 41,000  Level Indianapolis Center
Sun 09:00:59 PM 39.3075 -87.4467 66° East 423 487 41,000  Level Indianapolis Center
Sun 09:02:00 PM 39.3564 -87.3103 65° Northeast 421 484 41,000  Level Indianapolis Center
Sun 09:03:02 PM 39.4047 -87.1736 65° Northeast 420 483 41,000  Level Indianapolis Center
Sun 09:04:03 PM 39.4517 -87.0397 66° East 413 475 41,000  Level Indianapolis Center
Sun 09:05:04 PM 39.4986 -86.9064 65° Northeast 411 473 41,000 -443 Level Indianapolis Center
Sun 09:06:05 PM 39.5464 -86.7700 66° East 415 478 40,100 -1,122 Descending Indianapolis Center
Sun 09:07:07 PM 39.5950 -86.6294 66° East 428 493 38,700 -1,366 Descending Indianapolis Center
Sun 09:08:08 PM 39.6425 -86.4914 66° East 423 487 37,300 -1,475 Descending Indianapolis Center
Sun 09:09:09 PM 39.6928 -86.3419 66° East 408 470 35,700 -1,131 Descending Indianapolis Center
Sun 09:10:10 PM 39.7389 -86.2081 66° East 405 466 35,000 -344 Descending Indianapolis Center
Sun 09:11:11 PM 39.7836 -86.0778 66° East 405 466 35,000  Level Indianapolis Center
Sun 09:12:12 PM 39.8292 -85.9439 66° East 407 468 35,000  Level Indianapolis Center
Sun 09:13:14 PM 39.8750 -85.8089 66° East 411 473 35,000 -439 Level Indianapolis Center
Sun 09:14:15 PM 39.9206 -85.6722 66° East 413 475 34,100 -1,475 Descending Indianapolis Center
Sun 09:15:16 PM 39.9644 -85.5042 71° East 410 472 32,000 -1,820 Descending Indianapolis Center
Sun 09:16:17 PM 39.9961 -85.3594 74° East 415 478 30,400 -1,475 Descending Indianapolis Center
Sun 09:17:18 PM 40.0283 -85.2136 74° East 419 482 29,000 -683 Descending Indianapolis Center
Sun 09:18:20 PM 40.0614 -85.0653 74° East 427 491 29,000  Level Indianapolis Center
Sun 09:19:21 PM 40.0947 -84.9181 73° East 425 489 29,000 -344 Level Indianapolis Center
Sun 09:20:22 PM 40.1269 -84.7669 74° East 429 494 28,300 -1,377 Descending Indianapolis Center
Sun 09:21:23 PM 40.1586 -84.6186 74° East 420 483 26,200 -2,049 Descending Indianapolis Center
Sun 09:22:25 PM 40.1914 -84.4728 74° East 416 479 24,100 -1,951 Descending Indianapolis Center
Sun 09:23:26 PM 40.2219 -84.3278 75° East 408 470 22,200 -1,820 Descending Indianapolis Center
Sun 09:24:27 PM 40.2511 -84.1867 75° East 399 459 20,400 -1,770 Descending Indianapolis Center
Sun 09:25:28 PM 40.2797 -84.0489 75° East 387 445 18,600 -1,756 Descending Indianapolis Center
Sun 09:26:30 PM 40.3075 -83.9150 75° East 378 435 16,800 -1,837 Descending Indianapolis Center
Sun 09:27:06 PM 40.3275 -83.8172 75° East 368 423 15,600 -1,574 Descending Indianapolis Center
Sun 09:27:31 PM 40.3353 -83.7844 73° East 369 425 15,200 -1,574 Descending Indianapolis Center
Sun 09:28:07 PM 40.3536 -83.6919 75° East 361 415 14,000 -1,833 Descending Indianapolis Center
Sun 09:28:43 PM 40.3508 -83.6150 93° East 342 394 13,000 -1,674 Descending Indianapolis Center
Sun 09:29:33 PM 40.3225 -83.5242 112° Southeast 322 371 11,600 -1,339 Descending Indianapolis Center
Sun 09:30:35 PM 40.2789 -83.4342 122° Southeast 295 339 10,500 -1,000 Descending Indianapolis Center
Sun 09:31:09 PM 40.2397 -83.4125 157° South 256 295 10,000 -885 Descending Indianapolis Center
Sun 09:31:36 PM 40.2133 -83.3944 152° Southeast 263 303 9,600 -1,364 Descending Indianapolis Center
Sun 09:32:37 PM 40.1511 -83.3561 155° Southeast 247 284 8,000 -1,568 Descending Indianapolis Center
Sun 09:33:04 PM 40.1194 -83.3381 156° South 247 284 7,300 -1,475 Descending Indianapolis Center
Sun 09:33:38 PM 40.0869 -83.3181 155° Southeast 248 285 6,500 -1,527 Descending Indianapolis Center
Sun 09:33:59 PM 40.0706 -83.2911 128° Southeast 248 285 5,900 -1,548 Descending Indianapolis Center
Sun 09:34:40 PM 40.0539 -83.2381 112° Southeast 250 288 4,900 -1,343 Descending Indianapolis Center
Sun 09:35:06 PM 40.0436 -83.1981 109° East 248 285 4,400 -706 Descending Indianapolis Center
Sun 09:35:48 PM 40.0306 -83.1447 108° East 210 242 4,100 -688 Descending Indianapolis Center
Sun 09:36:42 PM 40.0169 -83.0906 108° East 207 238 3,300 -847 Descending Indianapolis Center
Sun 09:37:13 PM 40.0092 -83.0581 107° East 150 173 2,900 -618 Descending Indianapolis Center
Sun 09:37:50 PM 40.0028 -83.0300 107° East 136 157 2,600 -652 Descending Indianapolis Center
Sun 09:38:45 PM 39.9981 -82.9867 98° East 152 175 1,900 -672 Descending Indianapolis Center
Sun 09:39:46 PM 39.9969 -82.9425 92° East 134 154 1,300 -492 Descending Indianapolis Center
Sun 09:40:47 PM 39.9944 -82.8958 94° East 129 148 900 -393 Descending Indianapolis Center
Sun 09:42:00 PM 39.9980 -82.8920 102° East  Level Estimated

Login

Don't have an account? Register now (free) for customized features, flight alerts, and more!